sensor_id;sensor_type;location;lat;lon;timestamp;P1;durP1;ratioP1;P2;durP2;ratioP2
12601;SDS011;30282;16.436;99.370;2023-04-29T00:00:08;76.77;;;45.30;;
12601;SDS011;30282;16.436;99.370;2023-04-29T00:02:38;65.70;;;45.80;;
12601;SDS011;30282;16.436;99.370;2023-04-29T00:05:08;66.53;;;44.07;;
12601;SDS011;30282;16.436;99.370;2023-04-29T00:07:38;70.70;;;45.03;;
12601;SDS011;30282;16.436;99.370;2023-04-29T00:10:10;71.13;;;40.33;;
12601;SDS011;30282;16.436;99.370;2023-04-29T00:12:39;63.63;;;42.37;;
12601;SDS011;30282;16.436;99.370;2023-04-29T00:15:09;56.30;;;39.83;;
12601;SDS011;30282;16.436;99.370;2023-04-29T00:17:39;60.10;;;40.13;;
12601;SDS011;30282;16.436;99.370;2023-04-29T00:20:08;52.17;;;38.63;;
12601;SDS011;30282;16.436;99.370;2023-04-29T00:22:39;56.20;;;36.27;;
12601;SDS011;30282;16.436;99.370;2023-04-29T00:25:10;49.90;;;35.90;;
12601;SDS011;30282;16.436;99.370;2023-04-29T00:27:39;49.47;;;36.43;;
12601;SDS011;30282;16.436;99.370;2023-04-29T00:30:09;45.80;;;35.40;;
12601;SDS011;30282;16.436;99.370;2023-04-29T00:32:39;51.17;;;34.30;;
12601;SDS011;30282;16.436;99.370;2023-04-29T00:35:08;62.30;;;36.40;;
12601;SDS011;30282;16.436;99.370;2023-04-29T00:37:38;54.40;;;37.03;;
12601;SDS011;30282;16.436;99.370;2023-04-29T00:40:08;48.80;;;36.73;;
12601;SDS011;30282;16.436;99.370;2023-04-29T00:42:40;76.90;;;36.77;;
12601;SDS011;30282;16.436;99.370;2023-04-29T00:45:09;53.73;;;37.40;;
12601;SDS011;30282;16.436;99.370;2023-04-29T00:47:39;46.37;;;36.07;;
12601;SDS011;30282;16.436;99.370;2023-04-29T00:50:09;46.80;;;33.97;;
12601;SDS011;30282;16.436;99.370;2023-04-29T00:52:38;45.43;;;36.33;;
12601;SDS011;30282;16.436;99.370;2023-04-29T00:55:09;46.93;;;37.17;;
12601;SDS011;30282;16.436;99.370;2023-04-29T00:57:41;53.50;;;37.50;;
12601;SDS011;30282;16.436;99.370;2023-04-29T01:00:12;46.37;;;32.83;;
12601;SDS011;30282;16.436;99.370;2023-04-29T01:02:42;45.00;;;32.83;;
12601;SDS011;30282;16.436;99.370;2023-04-29T01:05:13;44.40;;;34.03;;
12601;SDS011;30282;16.436;99.370;2023-04-29T01:07:44;45.30;;;30.17;;
12601;SDS011;30282;16.436;99.370;2023-04-29T01:10:24;43.43;;;32.77;;
12601;SDS011;30282;16.436;99.370;2023-04-29T01:12:57;52.13;;;30.60;;
12601;SDS011;30282;16.436;99.370;2023-04-29T01:15:37;41.73;;;31.30;;
12601;SDS011;30282;16.436;99.370;2023-04-29T01:18:17;51.40;;;30.83;;
12601;SDS011;30282;16.436;99.370;2023-04-29T01:20:49;51.77;;;30.77;;
12601;SDS011;30282;16.436;99.370;2023-04-29T01:23:19;49.13;;;30.87;;
12601;SDS011;30282;16.436;99.370;2023-04-29T01:25:50;43.00;;;32.23;;
12601;SDS011;30282;16.436;99.370;2023-04-29T01:28:21;51.10;;;33.30;;
12601;SDS011;30282;16.436;99.370;2023-04-29T01:31:03;41.80;;;32.13;;
12601;SDS011;30282;16.436;99.370;2023-04-29T01:33:39;40.70;;;32.50;;
12601;SDS011;30282;16.436;99.370;2023-04-29T01:36:18;38.70;;;31.67;;
12601;SDS011;30282;16.436;99.370;2023-04-29T01:38:55;37.87;;;27.10;;
12601;SDS011;30282;16.436;99.370;2023-04-29T01:41:33;40.50;;;28.10;;
12601;SDS011;30282;16.436;99.370;2023-04-29T01:44:11;45.07;;;31.07;;
12601;SDS011;30282;16.436;99.370;2023-04-29T01:46:43;45.50;;;30.30;;
12601;SDS011;30282;16.436;99.370;2023-04-29T01:49:19;43.10;;;31.27;;
12601;SDS011;30282;16.436;99.370;2023-04-29T01:51:48;47.57;;;32.87;;
12601;SDS011;30282;16.436;99.370;2023-04-29T01:54:18;40.27;;;30.43;;
12601;SDS011;30282;16.436;99.370;2023-04-29T01:56:49;52.93;;;31.90;;
12601;SDS011;30282;16.436;99.370;2023-04-29T01:59:21;38.50;;;30.17;;
12601;SDS011;30282;16.436;99.370;2023-04-29T02:01:51;38.40;;;29.27;;
12601;SDS011;30282;16.436;99.370;2023-04-29T02:04:21;52.70;;;32.03;;
12601;SDS011;30282;16.436;99.370;2023-04-29T02:06:50;41.80;;;29.60;;
12601;SDS011;30282;16.436;99.370;2023-04-29T02:09:20;46.03;;;35.57;;
12601;SDS011;30282;16.436;99.370;2023-04-29T02:11:51;41.63;;;31.43;;
12601;SDS011;30282;16.436;99.370;2023-04-29T02:14:20;41.30;;;31.17;;
12601;SDS011;30282;16.436;99.370;2023-04-29T02:16:50;41.73;;;30.37;;
12601;SDS011;30282;16.436;99.370;2023-04-29T02:19:19;44.63;;;29.27;;
12601;SDS011;30282;16.436;99.370;2023-04-29T02:21:49;48.13;;;30.40;;
12601;SDS011;30282;16.436;99.370;2023-04-29T02:24:19;40.80;;;31.17;;
12601;SDS011;30282;16.436;99.370;2023-04-29T02:26:48;43.83;;;28.83;;
12601;SDS011;30282;16.436;99.370;2023-04-29T02:29:20;36.57;;;29.60;;
12601;SDS011;30282;16.436;99.370;2023-04-29T02:31:51;37.00;;;28.87;;
12601;SDS011;30282;16.436;99.370;2023-04-29T02:34:20;36.80;;;29.00;;
12601;SDS011;30282;16.436;99.370;2023-04-29T02:36:50;49.17;;;32.90;;
12601;SDS011;30282;16.436;99.370;2023-04-29T02:39:20;40.67;;;35.13;;
12601;SDS011;30282;16.436;99.370;2023-04-29T02:41:51;33.60;;;28.70;;
12601;SDS011;30282;16.436;99.370;2023-04-29T02:44:23;42.57;;;27.30;;
12601;SDS011;30282;16.436;99.370;2023-04-29T02:46:52;35.33;;;28.37;;
12601;SDS011;30282;16.436;99.370;2023-04-29T02:49:22;29.67;;;25.10;;
12601;SDS011;30282;16.436;99.370;2023-04-29T02:51:52;35.60;;;27.83;;
12601;SDS011;30282;16.436;99.370;2023-04-29T02:54:23;32.43;;;26.87;;
12601;SDS011;30282;16.436;99.370;2023-04-29T02:56:54;37.47;;;27.37;;
12601;SDS011;30282;16.436;99.370;2023-04-29T02:59:24;46.37;;;26.40;;
12601;SDS011;30282;16.436;99.370;2023-04-29T03:01:53;36.17;;;27.63;;
12601;SDS011;30282;16.436;99.370;2023-04-29T03:04:23;38.30;;;27.43;;
12601;SDS011;30282;16.436;99.370;2023-04-29T03:06:53;30.57;;;25.93;;
12601;SDS011;30282;16.436;99.370;2023-04-29T03:09:23;45.97;;;25.83;;
12601;SDS011;30282;16.436;99.370;2023-04-29T03:11:54;36.60;;;26.50;;
12601;SDS011;30282;16.436;99.370;2023-04-29T03:14:24;34.63;;;26.20;;
12601;SDS011;30282;16.436;99.370;2023-04-29T03:16:55;32.50;;;25.30;;
12601;SDS011;30282;16.436;99.370;2023-04-29T03:19:24;29.80;;;25.50;;
12601;SDS011;30282;16.436;99.370;2023-04-29T03:21:54;34.10;;;24.60;;
12601;SDS011;30282;16.436;99.370;2023-04-29T03:24:23;34.40;;;25.67;;
12601;SDS011;30282;16.436;99.370;2023-04-29T03:26:54;31.30;;;26.53;;
12601;SDS011;30282;16.436;99.370;2023-04-29T03:29:24;32.90;;;25.70;;
12601;SDS011;30282;16.436;99.370;2023-04-29T03:31:54;32.17;;;24.60;;
12601;SDS011;30282;16.436;99.370;2023-04-29T03:34:24;45.47;;;24.97;;
12601;SDS011;30282;16.436;99.370;2023-04-29T03:36:55;34.60;;;26.20;;
12601;SDS011;30282;16.436;99.370;2023-04-29T03:39:24;31.43;;;26.07;;
12601;SDS011;30282;16.436;99.370;2023-04-29T03:41:58;31.27;;;25.27;;
12601;SDS011;30282;16.436;99.370;2023-04-29T03:44:29;29.80;;;24.53;;
12601;SDS011;30282;16.436;99.370;2023-04-29T03:46:59;34.27;;;25.43;;
12601;SDS011;30282;16.436;99.370;2023-04-29T03:49:29;34.57;;;26.80;;
12601;SDS011;30282;16.436;99.370;2023-04-29T03:51:58;32.17;;;25.80;;
12601;SDS011;30282;16.436;99.370;2023-04-29T03:54:28;33.10;;;25.47;;
12601;SDS011;30282;16.436;99.370;2023-04-29T03:56:59;29.10;;;25.80;;
12601;SDS011;30282;16.436;99.370;2023-04-29T03:59:29;44.93;;;25.40;;
12601;SDS011;30282;16.436;99.370;2023-04-29T04:01:58;34.40;;;24.70;;
12601;SDS011;30282;16.436;99.370;2023-04-29T04:04:28;31.03;;;25.40;;
12601;SDS011;30282;16.436;99.370;2023-04-29T04:06:58;33.73;;;25.00;;
12601;SDS011;30282;16.436;99.370;2023-04-29T04:09:28;38.13;;;26.17;;
12601;SDS011;30282;16.436;99.370;2023-04-29T04:12:00;27.97;;;23.83;;
12601;SDS011;30282;16.436;99.370;2023-04-29T04:14:29;37.37;;;25.00;;
12601;SDS011;30282;16.436;99.370;2023-04-29T04:16:59;33.93;;;25.07;;
12601;SDS011;30282;16.436;99.370;2023-04-29T04:19:29;33.30;;;26.30;;
12601;SDS011;30282;16.436;99.370;2023-04-29T04:21:58;31.17;;;24.57;;
12601;SDS011;30282;16.436;99.370;2023-04-29T04:24:29;31.13;;;25.40;;
12601;SDS011;30282;16.436;99.370;2023-04-29T04:27:00;36.50;;;24.63;;
12601;SDS011;30282;16.436;99.370;2023-04-29T04:29:30;29.47;;;24.77;;
12601;SDS011;30282;16.436;99.370;2023-04-29T04:31:59;31.33;;;24.17;;
12601;SDS011;30282;16.436;99.370;2023-04-29T04:34:29;33.23;;;23.93;;
12601;SDS011;30282;16.436;99.370;2023-04-29T04:36:58;27.63;;;23.90;;
12601;SDS011;30282;16.436;99.370;2023-04-29T04:39:27;32.60;;;23.43;;
12601;SDS011;30282;16.436;99.370;2023-04-29T04:41:57;28.13;;;23.40;;
12601;SDS011;30282;16.436;99.370;2023-04-29T04:44:28;26.20;;;21.50;;
12601;SDS011;30282;16.436;99.370;2023-04-29T04:46:58;25.77;;;21.73;;
12601;SDS011;30282;16.436;99.370;2023-04-29T04:49:27;29.13;;;23.17;;
12601;SDS011;30282;16.436;99.370;2023-04-29T04:51:57;26.13;;;23.33;;
12601;SDS011;30282;16.436;99.370;2023-04-29T04:54:26;26.10;;;23.30;;
12601;SDS011;30282;16.436;99.370;2023-04-29T04:56:56;26.00;;;22.17;;
12601;SDS011;30282;16.436;99.370;2023-04-29T04:59:27;24.00;;;21.23;;
12601;SDS011;30282;16.436;99.370;2023-04-29T05:01:56;33.63;;;21.70;;
12601;SDS011;30282;16.436;99.370;2023-04-29T05:04:25;31.93;;;22.57;;
12601;SDS011;30282;16.436;99.370;2023-04-29T05:06:55;26.00;;;23.00;;
12601;SDS011;30282;16.436;99.370;2023-04-29T05:09:24;26.00;;;19.93;;
12601;SDS011;30282;16.436;99.370;2023-04-29T05:11:54;25.20;;;22.13;;
12601;SDS011;30282;16.436;99.370;2023-04-29T05:14:24;25.00;;;21.13;;
12601;SDS011;30282;16.436;99.370;2023-04-29T05:16:57;30.20;;;22.63;;
12601;SDS011;30282;16.436;99.370;2023-04-29T05:19:27;26.20;;;20.43;;
12601;SDS011;30282;16.436;99.370;2023-04-29T05:21:56;24.73;;;20.70;;
12601;SDS011;30282;16.436;99.370;2023-04-29T05:24:26;34.90;;;21.30;;
12601;SDS011;30282;16.436;99.370;2023-04-29T05:26:55;26.90;;;22.13;;
12601;SDS011;30282;16.436;99.370;2023-04-29T05:29:25;26.43;;;20.83;;
12601;SDS011;30282;16.436;99.370;2023-04-29T05:31:56;26.40;;;20.90;;
12601;SDS011;30282;16.436;99.370;2023-04-29T05:34:25;33.53;;;22.50;;
12601;SDS011;30282;16.436;99.370;2023-04-29T05:36:55;23.97;;;21.20;;
12601;SDS011;30282;16.436;99.370;2023-04-29T05:39:24;25.33;;;22.80;;
12601;SDS011;30282;16.436;99.370;2023-04-29T05:41:54;25.10;;;20.47;;
12601;SDS011;30282;16.436;99.370;2023-04-29T05:44:23;23.33;;;19.93;;
12601;SDS011;30282;16.436;99.370;2023-04-29T05:46:55;33.67;;;22.43;;
12601;SDS011;30282;16.436;99.370;2023-04-29T05:49:24;22.33;;;19.30;;
12601;SDS011;30282;16.436;99.370;2023-04-29T05:51:54;29.73;;;21.30;;
12601;SDS011;30282;16.436;99.370;2023-04-29T05:54:30;26.73;;;21.80;;
12601;SDS011;30282;16.436;99.370;2023-04-29T05:57:00;28.93;;;21.03;;
12601;SDS011;30282;16.436;99.370;2023-04-29T05:59:30;25.80;;;21.20;;
12601;SDS011;30282;16.436;99.370;2023-04-29T06:02:02;26.43;;;20.67;;
12601;SDS011;30282;16.436;99.370;2023-04-29T06:04:31;22.40;;;20.00;;
12601;SDS011;30282;16.436;99.370;2023-04-29T06:07:01;27.50;;;21.67;;
12601;SDS011;30282;16.436;99.370;2023-04-29T06:09:30;27.23;;;20.90;;
12601;SDS011;30282;16.436;99.370;2023-04-29T06:12:00;24.47;;;20.70;;
12601;SDS011;30282;16.436;99.370;2023-04-29T06:14:29;24.13;;;20.90;;
12601;SDS011;30282;16.436;99.370;2023-04-29T06:16:59;22.10;;;19.17;;
12601;SDS011;30282;16.436;99.370;2023-04-29T06:19:30;24.00;;;21.43;;
12601;SDS011;30282;16.436;99.370;2023-04-29T06:21:59;22.23;;;19.60;;
12601;SDS011;30282;16.436;99.370;2023-04-29T06:24:29;27.30;;;20.17;;
12601;SDS011;30282;16.436;99.370;2023-04-29T06:26:58;25.87;;;21.43;;
12601;SDS011;30282;16.436;99.370;2023-04-29T06:29:29;21.93;;;19.73;;
12601;SDS011;30282;16.436;99.370;2023-04-29T06:31:58;30.60;;;21.07;;
12601;SDS011;30282;16.436;99.370;2023-04-29T06:34:28;26.90;;;21.10;;
12601;SDS011;30282;16.436;99.370;2023-04-29T06:36:59;26.17;;;20.20;;
12601;SDS011;30282;16.436;99.370;2023-04-29T06:39:28;25.33;;;20.63;;
12601;SDS011;30282;16.436;99.370;2023-04-29T06:41:58;21.43;;;19.20;;
12601;SDS011;30282;16.436;99.370;2023-04-29T06:44:28;21.53;;;19.13;;
12601;SDS011;30282;16.436;99.370;2023-04-29T06:46:57;24.97;;;20.30;;
12601;SDS011;30282;16.436;99.370;2023-04-29T06:49:27;21.87;;;19.30;;
12601;SDS011;30282;16.436;99.370;2023-04-29T06:51:58;22.50;;;20.20;;
12601;SDS011;30282;16.436;99.370;2023-04-29T06:54:28;25.83;;;20.60;;
12601;SDS011;30282;16.436;99.370;2023-04-29T06:56:57;23.47;;;19.70;;
12601;SDS011;30282;16.436;99.370;2023-04-29T06:59:27;23.80;;;20.07;;
12601;SDS011;30282;16.436;99.370;2023-04-29T07:01:57;23.03;;;20.20;;
12601;SDS011;30282;16.436;99.370;2023-04-29T07:04:27;25.80;;;20.63;;
12601;SDS011;30282;16.436;99.370;2023-04-29T07:06:58;23.47;;;19.03;;
12601;SDS011;30282;16.436;99.370;2023-04-29T07:09:28;31.20;;;20.90;;
12601;SDS011;30282;16.436;99.370;2023-04-29T07:11:57;23.70;;;20.27;;
12601;SDS011;30282;16.436;99.370;2023-04-29T07:14:29;21.30;;;18.87;;
12601;SDS011;30282;16.436;99.370;2023-04-29T07:17:02;24.83;;;21.23;;
12601;SDS011;30282;16.436;99.370;2023-04-29T07:19:31;23.67;;;20.43;;
12601;SDS011;30282;16.436;99.370;2023-04-29T07:22:02;27.47;;;20.53;;
12601;SDS011;30282;16.436;99.370;2023-04-29T07:24:32;25.57;;;18.80;;
12601;SDS011;30282;16.436;99.370;2023-04-29T07:27:01;41.40;;;21.27;;
12601;SDS011;30282;16.436;99.370;2023-04-29T07:29:31;24.57;;;20.73;;
12601;SDS011;30282;16.436;99.370;2023-04-29T07:32:01;27.30;;;20.33;;
12601;SDS011;30282;16.436;99.370;2023-04-29T07:34:30;25.70;;;21.07;;
12601;SDS011;30282;16.436;99.370;2023-04-29T07:37:00;37.70;;;21.37;;
12601;SDS011;30282;16.436;99.370;2023-04-29T07:39:31;36.67;;;21.90;;
12601;SDS011;30282;16.436;99.370;2023-04-29T07:42:01;31.97;;;23.87;;
12601;SDS011;30282;16.436;99.370;2023-04-29T07:44:30;38.40;;;29.47;;
12601;SDS011;30282;16.436;99.370;2023-04-29T07:47:00;29.87;;;25.27;;
12601;SDS011;30282;16.436;99.370;2023-04-29T07:49:29;29.40;;;25.33;;
12601;SDS011;30282;16.436;99.370;2023-04-29T07:51:59;29.83;;;23.80;;
12601;SDS011;30282;16.436;99.370;2023-04-29T07:54:30;30.30;;;22.80;;
12601;SDS011;30282;16.436;99.370;2023-04-29T07:56:59;30.37;;;23.20;;
12601;SDS011;30282;16.436;99.370;2023-04-29T07:59:29;28.20;;;21.70;;
12601;SDS011;30282;16.436;99.370;2023-04-29T08:01:59;29.13;;;20.90;;
12601;SDS011;30282;16.436;99.370;2023-04-29T08:04:28;28.33;;;20.93;;
12601;SDS011;30282;16.436;99.370;2023-04-29T08:06:58;27.23;;;20.80;;
12601;SDS011;30282;16.436;99.370;2023-04-29T08:09:27;25.20;;;21.80;;
12601;SDS011;30282;16.436;99.370;2023-04-29T08:11:58;27.00;;;21.40;;
12601;SDS011;30282;16.436;99.370;2023-04-29T08:14:28;24.07;;;19.23;;
12601;SDS011;30282;16.436;99.370;2023-04-29T08:16:58;24.33;;;20.43;;
12601;SDS011;30282;16.436;99.370;2023-04-29T08:19:27;37.90;;;21.20;;
12601;SDS011;30282;16.436;99.370;2023-04-29T08:21:57;38.30;;;22.97;;
12601;SDS011;30282;16.436;99.370;2023-04-29T08:24:30;30.77;;;23.80;;
12601;SDS011;30282;16.436;99.370;2023-04-29T08:27:00;27.60;;;21.30;;
12601;SDS011;30282;16.436;99.370;2023-04-29T08:29:30;31.73;;;23.73;;
12601;SDS011;30282;16.436;99.370;2023-04-29T08:31:59;30.80;;;26.37;;
12601;SDS011;30282;16.436;99.370;2023-04-29T08:34:29;34.27;;;26.70;;
12601;SDS011;30282;16.436;99.370;2023-04-29T08:37:02;32.03;;;25.47;;
12601;SDS011;30282;16.436;99.370;2023-04-29T08:39:33;34.17;;;22.50;;
12601;SDS011;30282;16.436;99.370;2023-04-29T08:42:07;26.53;;;21.60;;
12601;SDS011;30282;16.436;99.370;2023-04-29T08:44:36;25.20;;;20.27;;
12601;SDS011;30282;16.436;99.370;2023-04-29T08:47:07;23.63;;;20.17;;
12601;SDS011;30282;16.436;99.370;2023-04-29T08:49:37;24.23;;;20.80;;
12601;SDS011;30282;16.436;99.370;2023-04-29T08:52:07;25.37;;;20.60;;
12601;SDS011;30282;16.436;99.370;2023-04-29T08:54:38;22.63;;;19.70;;
12601;SDS011;30282;16.436;99.370;2023-04-29T08:57:08;23.93;;;20.80;;
12601;SDS011;30282;16.436;99.370;2023-04-29T08:59:39;20.57;;;18.10;;
12601;SDS011;30282;16.436;99.370;2023-04-29T09:02:09;28.70;;;17.43;;
12601;SDS011;30282;16.436;99.370;2023-04-29T09:04:46;20.50;;;16.90;;
12601;SDS011;30282;16.436;99.370;2023-04-29T09:07:20;21.60;;;15.27;;
12601;SDS011;30282;16.436;99.370;2023-04-29T09:09:52;24.10;;;14.90;;
12601;SDS011;30282;16.436;99.370;2023-04-29T09:12:22;20.33;;;14.77;;
12601;SDS011;30282;16.436;99.370;2023-04-29T09:14:51;52.50;;;16.73;;
12601;SDS011;30282;16.436;99.370;2023-04-29T09:17:30;21.10;;;13.10;;
12601;SDS011;30282;16.436;99.370;2023-04-29T09:20:26;16.70;;;13.70;;
12601;SDS011;30282;16.436;99.370;2023-04-29T09:22:56;16.10;;;11.80;;
12601;SDS011;30282;16.436;99.370;2023-04-29T09:25:28;23.80;;;14.00;;
12601;SDS011;30282;16.436;99.370;2023-04-29T09:27:58;25.50;;;14.90;;
12601;SDS011;30282;16.436;99.370;2023-04-29T09:30:46;26.93;;;13.13;;
12601;SDS011;30282;16.436;99.370;2023-04-29T09:33:15;22.50;;;13.37;;
12601;SDS011;30282;16.436;99.370;2023-04-29T09:35:44;18.17;;;12.67;;
12601;SDS011;30282;16.436;99.370;2023-04-29T09:38:14;17.43;;;12.03;;
12601;SDS011;30282;16.436;99.370;2023-04-29T09:40:52;14.70;;;11.50;;
12601;SDS011;30282;16.436;99.370;2023-04-29T09:43:22;15.00;;;11.50;;
12601;SDS011;30282;16.436;99.370;2023-04-29T09:45:53;15.70;;;12.80;;
12601;SDS011;30282;16.436;99.370;2023-04-29T09:48:23;15.53;;;12.87;;
12601;SDS011;30282;16.436;99.370;2023-04-29T09:51:00;19.40;;;14.00;;
12601;SDS011;30282;16.436;99.370;2023-04-29T09:53:30;18.80;;;12.10;;
12601;SDS011;30282;16.436;99.370;2023-04-29T09:56:04;17.10;;;12.83;;
12601;SDS011;30282;16.436;99.370;2023-04-29T09:58:34;18.30;;;13.00;;
12601;SDS011;30282;16.436;99.370;2023-04-29T10:01:04;13.97;;;12.40;;
12601;SDS011;30282;16.436;99.370;2023-04-29T10:03:34;16.53;;;11.90;;
12601;SDS011;30282;16.436;99.370;2023-04-29T10:06:06;15.90;;;13.27;;
12601;SDS011;30282;16.436;99.370;2023-04-29T10:08:35;17.33;;;13.83;;
12601;SDS011;30282;16.436;99.370;2023-04-29T10:11:10;17.40;;;14.47;;
12601;SDS011;30282;16.436;99.370;2023-04-29T10:13:41;15.90;;;13.43;;
12601;SDS011;30282;16.436;99.370;2023-04-29T10:16:22;23.70;;;14.00;;
12601;SDS011;30282;16.436;99.370;2023-04-29T10:18:58;22.00;;;15.03;;
12601;SDS011;30282;16.436;99.370;2023-04-29T10:21:33;23.60;;;14.63;;
12601;SDS011;30282;16.436;99.370;2023-04-29T10:24:03;18.20;;;15.87;;
12601;SDS011;30282;16.436;99.370;2023-04-29T10:26:35;22.97;;;16.57;;
12601;SDS011;30282;16.436;99.370;2023-04-29T10:29:09;23.20;;;15.63;;
12601;SDS011;30282;16.436;99.370;2023-04-29T10:31:40;18.30;;;14.13;;
12601;SDS011;30282;16.436;99.370;2023-04-29T10:34:13;22.93;;;15.53;;
12601;SDS011;30282;16.436;99.370;2023-04-29T10:36:45;17.63;;;14.87;;
12601;SDS011;30282;16.436;99.370;2023-04-29T10:39:19;21.87;;;16.00;;
12601;SDS011;30282;16.436;99.370;2023-04-29T10:42:00;22.50;;;15.40;;
12601;SDS011;30282;16.436;99.370;2023-04-29T10:47:48;18.17;;;15.30;;
12601;SDS011;30282;16.436;99.370;2023-04-29T10:53:28;25.13;;;17.67;;
12601;SDS011;30282;16.436;99.370;2023-04-29T10:56:06;28.00;;;16.63;;
12601;SDS011;30282;16.436;99.370;2023-04-29T10:58:50;22.23;;;15.87;;
12601;SDS011;30282;16.436;99.370;2023-04-29T11:01:26;17.83;;;15.37;;
12601;SDS011;30282;16.436;99.370;2023-04-29T11:04:09;23.10;;;16.70;;
12601;SDS011;30282;16.436;99.370;2023-04-29T11:06:40;19.13;;;15.30;;
12601;SDS011;30282;16.436;99.370;2023-04-29T11:09:11;21.43;;;14.97;;
12601;SDS011;30282;16.436;99.370;2023-04-29T11:11:45;21.73;;;15.57;;
12601;SDS011;30282;16.436;99.370;2023-04-29T11:14:25;18.37;;;14.97;;
12601;SDS011;30282;16.436;99.370;2023-04-29T11:16:56;30.10;;;16.20;;
12601;SDS011;30282;16.436;99.370;2023-04-29T11:19:29;22.30;;;14.73;;
12601;SDS011;30282;16.436;99.370;2023-04-29T11:22:06;22.10;;;16.37;;
12601;SDS011;30282;16.436;99.370;2023-04-29T11:24:48;24.83;;;16.67;;
12601;SDS011;30282;16.436;99.370;2023-04-29T11:27:19;20.60;;;16.43;;
12601;SDS011;30282;16.436;99.370;2023-04-29T11:29:52;21.60;;;16.10;;
12601;SDS011;30282;16.436;99.370;2023-04-29T11:32:29;29.47;;;17.67;;
12601;SDS011;30282;16.436;99.370;2023-04-29T11:35:06;29.23;;;16.60;;
12601;SDS011;30282;16.436;99.370;2023-04-29T11:37:36;25.60;;;18.70;;
12601;SDS011;30282;16.436;99.370;2023-04-29T11:40:07;35.43;;;18.90;;
12601;SDS011;30282;16.436;99.370;2023-04-29T11:42:39;24.97;;;18.97;;
12601;SDS011;30282;16.436;99.370;2023-04-29T11:45:13;22.23;;;16.80;;
12601;SDS011;30282;16.436;99.370;2023-04-29T11:47:44;25.07;;;16.40;;
12601;SDS011;30282;16.436;99.370;2023-04-29T11:50:15;22.50;;;17.23;;
12601;SDS011;30282;16.436;99.370;2023-04-29T11:52:45;22.30;;;16.50;;
12601;SDS011;30282;16.436;99.370;2023-04-29T11:55:15;17.90;;;16.00;;
12601;SDS011;30282;16.436;99.370;2023-04-29T11:57:47;24.27;;;17.77;;
12601;SDS011;30282;16.436;99.370;2023-04-29T12:00:19;24.60;;;17.47;;
12601;SDS011;30282;16.436;99.370;2023-04-29T12:02:48;27.10;;;21.30;;
12601;SDS011;30282;16.436;99.370;2023-04-29T12:05:18;73.70;;;21.47;;
12601;SDS011;30282;16.436;99.370;2023-04-29T12:07:48;32.33;;;20.07;;
12601;SDS011;30282;16.436;99.370;2023-04-29T12:10:17;33.00;;;20.70;;
12601;SDS011;30282;16.436;99.370;2023-04-29T12:12:50;29.00;;;19.30;;
12601;SDS011;30282;16.436;99.370;2023-04-29T12:15:21;40.10;;;20.07;;
12601;SDS011;30282;16.436;99.370;2023-04-29T12:17:51;30.23;;;18.90;;
12601;SDS011;30282;16.436;99.370;2023-04-29T12:20:20;39.30;;;21.13;;
12601;SDS011;30282;16.436;99.370;2023-04-29T12:22:50;26.30;;;20.27;;
12601;SDS011;30282;16.436;99.370;2023-04-29T12:25:24;33.63;;;21.13;;
12601;SDS011;30282;16.436;99.370;2023-04-29T12:27:58;32.53;;;24.73;;
12601;SDS011;30282;16.436;99.370;2023-04-29T12:30:35;42.00;;;30.60;;
12601;SDS011;30282;16.436;99.370;2023-04-29T12:33:07;44.40;;;30.10;;
12601;SDS011;30282;16.436;99.370;2023-04-29T12:35:36;52.43;;;28.93;;
12601;SDS011;30282;16.436;99.370;2023-04-29T12:38:06;41.83;;;25.47;;
12601;SDS011;30282;16.436;99.370;2023-04-29T12:40:36;62.97;;;26.47;;
12601;SDS011;30282;16.436;99.370;2023-04-29T12:43:09;42.53;;;24.87;;
12601;SDS011;30282;16.436;99.370;2023-04-29T12:45:40;42.57;;;25.37;;
12601;SDS011;30282;16.436;99.370;2023-04-29T12:48:13;37.00;;;22.80;;
12601;SDS011;30282;16.436;99.370;2023-04-29T12:50:47;34.20;;;22.30;;
12601;SDS011;30282;16.436;99.370;2023-04-29T12:53:17;31.90;;;20.77;;
12601;SDS011;30282;16.436;99.370;2023-04-29T12:55:49;31.63;;;21.87;;
12601;SDS011;30282;16.436;99.370;2023-04-29T12:58:22;38.93;;;22.07;;
12601;SDS011;30282;16.436;99.370;2023-04-29T13:00:53;33.40;;;23.03;;
12601;SDS011;30282;16.436;99.370;2023-04-29T13:03:22;32.43;;;22.40;;
12601;SDS011;30282;16.436;99.370;2023-04-29T13:05:52;31.77;;;21.37;;
12601;SDS011;30282;16.436;99.370;2023-04-29T13:08:21;28.63;;;20.20;;
12601;SDS011;30282;16.436;99.370;2023-04-29T13:10:52;40.87;;;20.87;;
12601;SDS011;30282;16.436;99.370;2023-04-29T13:13:21;39.20;;;20.43;;
12601;SDS011;30282;16.436;99.370;2023-04-29T13:15:51;36.57;;;20.73;;
12601;SDS011;30282;16.436;99.370;2023-04-29T13:18:23;37.17;;;19.87;;
12601;SDS011;30282;16.436;99.370;2023-04-29T13:20:55;60.37;;;22.50;;
12601;SDS011;30282;16.436;99.370;2023-04-29T13:23:24;32.20;;;20.23;;
12601;SDS011;30282;16.436;99.370;2023-04-29T13:25:54;49.17;;;21.53;;
12601;SDS011;30282;16.436;99.370;2023-04-29T13:28:26;36.27;;;20.40;;
12601;SDS011;30282;16.436;99.370;2023-04-29T13:30:58;37.13;;;20.83;;
12601;SDS011;30282;16.436;99.370;2023-04-29T13:33:27;36.47;;;19.63;;
12601;SDS011;30282;16.436;99.370;2023-04-29T13:35:57;27.40;;;17.73;;
12601;SDS011;30282;16.436;99.370;2023-04-29T13:38:26;39.13;;;19.63;;
12601;SDS011;30282;16.436;99.370;2023-04-29T13:40:56;28.17;;;19.23;;
12601;SDS011;30282;16.436;99.370;2023-04-29T13:43:26;31.40;;;19.63;;
12601;SDS011;30282;16.436;99.370;2023-04-29T13:46:00;26.73;;;19.50;;
12601;SDS011;30282;16.436;99.370;2023-04-29T13:48:30;26.57;;;18.73;;
12601;SDS011;30282;16.436;99.370;2023-04-29T13:51:00;30.33;;;19.60;;
12601;SDS011;30282;16.436;99.370;2023-04-29T13:53:29;26.67;;;20.30;;
12601;SDS011;30282;16.436;99.370;2023-04-29T13:55:59;28.27;;;19.43;;
12601;SDS011;30282;16.436;99.370;2023-04-29T13:58:28;27.10;;;21.07;;
12601;SDS011;30282;16.436;99.370;2023-04-29T14:00:57;31.10;;;22.03;;
12601;SDS011;30282;16.436;99.370;2023-04-29T14:03:29;28.60;;;20.60;;
12601;SDS011;30282;16.436;99.370;2023-04-29T14:05:58;34.23;;;21.70;;
12601;SDS011;30282;16.436;99.370;2023-04-29T14:08:28;35.70;;;20.67;;
12601;SDS011;30282;16.436;99.370;2023-04-29T14:10:57;35.43;;;20.97;;
12601;SDS011;30282;16.436;99.370;2023-04-29T14:13:27;37.33;;;23.73;;
12601;SDS011;30282;16.436;99.370;2023-04-29T14:15:56;35.67;;;23.17;;
12601;SDS011;30282;16.436;99.370;2023-04-29T14:18:31;33.83;;;22.57;;
12601;SDS011;30282;16.436;99.370;2023-04-29T14:21:01;38.47;;;21.50;;
12601;SDS011;30282;16.436;99.370;2023-04-29T14:23:30;29.53;;;22.00;;
12601;SDS011;30282;16.436;99.370;2023-04-29T14:26:02;30.50;;;21.40;;
12601;SDS011;30282;16.436;99.370;2023-04-29T14:28:31;32.77;;;21.00;;
12601;SDS011;30282;16.436;99.370;2023-04-29T14:31:02;28.50;;;20.80;;
12601;SDS011;30282;16.436;99.370;2023-04-29T14:33:34;73.00;;;22.20;;
12601;SDS011;30282;16.436;99.370;2023-04-29T14:36:03;32.93;;;21.43;;